SAZR/RSA METAR and TAF weather

Enter ICAO airport designator
Station Type Date Time Source
SAZR METAR 2020/06/30 19:25 UTC NOAA

SAZR 301925Z 18014KT 2500 DZ BKN005 BKN015 08/08 Q1020


Station Type Date Time Source
SAZR Decoded METAR 2020/06/30 19:25 UTC NOAA

Santa Rosa Aerodrome, Argentina (SAZR) 36-34S 064-16W 191M
Jun 30, 2020 - 03:25 PM EDT / 2020.06.30 1925 UTC
Wind: from the S (180 degrees) at 16 MPH (14 KT):0
Visibility: 1 mile(s):0
Sky conditions: mostly cloudy
Weather: drizzle
Temperature: 46 F (8 C)
Dew Point: 46 F (8 C)
Relative Humidity: 100%
Pressure (altimeter): 30.12 in. Hg (1020 hPa)
ob: SAZR 301925Z 18014KT 2500 DZ BKN005 BKN015 08/08 Q1020
cycle: 19

Station Type Date Time Source
SAZR TAF 2020/06/26 12:09 UTC NOAA

TAF SAZR 261100Z 2612/2712 12005KT CAVOK TX11/2618Z TN02/2710Z
BECMG 2618/2620 9999 SCT020 SCT040
TEMPO 2700/2706 8000 DZ
BECMG 2706/2708 17005KT CAVOK

Example: see airport list